sensor_id;sensor_type;location;lat;lon;timestamp;P1;durP1;ratioP1;P2;durP2;ratioP2
8100;SDS011;4093;53.470;9.832;2022-12-20T00:01:54;14.33;;;10.57;;
8100;SDS011;4093;53.470;9.832;2022-12-20T00:04:22;15.40;;;10.37;;
8100;SDS011;4093;53.470;9.832;2022-12-20T00:06:50;14.60;;;10.40;;
8100;SDS011;4093;53.470;9.832;2022-12-20T00:09:17;13.97;;;10.73;;
8100;SDS011;4093;53.470;9.832;2022-12-20T00:11:45;12.53;;;9.37;;
8100;SDS011;4093;53.470;9.832;2022-12-20T00:14:13;14.77;;;10.73;;
8100;SDS011;4093;53.470;9.832;2022-12-20T00:16:43;15.03;;;9.93;;
8100;SDS011;4093;53.470;9.832;2022-12-20T00:19:10;13.80;;;10.23;;
8100;SDS011;4093;53.470;9.832;2022-12-20T00:21:38;13.83;;;9.93;;
8100;SDS011;4093;53.470;9.832;2022-12-20T00:24:06;14.77;;;9.30;;
8100;SDS011;4093;53.470;9.832;2022-12-20T00:26:34;15.40;;;10.57;;
8100;SDS011;4093;53.470;9.832;2022-12-20T00:29:03;15.57;;;10.30;;
8100;SDS011;4093;53.470;9.832;2022-12-20T00:31:31;14.90;;;10.27;;
8100;SDS011;4093;53.470;9.832;2022-12-20T00:34:01;12.60;;;10.30;;
8100;SDS011;4093;53.470;9.832;2022-12-20T00:36:29;12.57;;;9.80;;
8100;SDS011;4093;53.470;9.832;2022-12-20T00:38:58;14.40;;;9.97;;
8100;SDS011;4093;53.470;9.832;2022-12-20T00:41:27;13.27;;;10.03;;
8100;SDS011;4093;53.470;9.832;2022-12-20T00:43:56;13.33;;;9.47;;
8100;SDS011;4093;53.470;9.832;2022-12-20T00:46:25;17.63;;;9.87;;
8100;SDS011;4093;53.470;9.832;2022-12-20T00:48:53;16.77;;;10.27;;
8100;SDS011;4093;53.470;9.832;2022-12-20T00:51:24;13.53;;;9.60;;
8100;SDS011;4093;53.470;9.832;2022-12-20T00:53:53;16.13;;;9.83;;
8100;SDS011;4093;53.470;9.832;2022-12-20T00:56:21;14.57;;;9.33;;
8100;SDS011;4093;53.470;9.832;2022-12-20T00:58:51;12.10;;;9.13;;
8100;SDS011;4093;53.470;9.832;2022-12-20T01:01:20;13.07;;;9.60;;
8100;SDS011;4093;53.470;9.832;2022-12-20T01:03:50;15.37;;;10.43;;
8100;SDS011;4093;53.470;9.832;2022-12-20T01:06:20;12.67;;;9.70;;
8100;SDS011;4093;53.470;9.832;2022-12-20T01:08:49;13.83;;;9.80;;
8100;SDS011;4093;53.470;9.832;2022-12-20T01:11:18;13.40;;;10.20;;
8100;SDS011;4093;53.470;9.832;2022-12-20T01:13:49;12.93;;;10.00;;
8100;SDS011;4093;53.470;9.832;2022-12-20T01:16:19;13.60;;;9.60;;
8100;SDS011;4093;53.470;9.832;2022-12-20T01:18:48;12.80;;;9.13;;
8100;SDS011;4093;53.470;9.832;2022-12-20T01:21:18;14.73;;;9.67;;
8100;SDS011;4093;53.470;9.832;2022-12-20T01:23:47;13.83;;;9.77;;
8100;SDS011;4093;53.470;9.832;2022-12-20T01:26:17;14.47;;;11.00;;
8100;SDS011;4093;53.470;9.832;2022-12-20T01:28:48;11.97;;;9.13;;
8100;SDS011;4093;53.470;9.832;2022-12-20T01:31:19;12.97;;;9.37;;
8100;SDS011;4093;53.470;9.832;2022-12-20T01:33:48;13.50;;;9.83;;
8100;SDS011;4093;53.470;9.832;2022-12-20T01:36:18;13.37;;;9.23;;
8100;SDS011;4093;53.470;9.832;2022-12-20T01:38:53;13.30;;;9.60;;
8100;SDS011;4093;53.470;9.832;2022-12-20T01:41:24;17.07;;;9.57;;
8100;SDS011;4093;53.470;9.832;2022-12-20T01:43:53;12.17;;;9.10;;
8100;SDS011;4093;53.470;9.832;2022-12-20T01:46:23;14.67;;;9.47;;
8100;SDS011;4093;53.470;9.832;2022-12-20T01:48:55;13.73;;;8.90;;
8100;SDS011;4093;53.470;9.832;2022-12-20T01:51:26;13.40;;;9.50;;
8100;SDS011;4093;53.470;9.832;2022-12-20T01:53:58;12.67;;;9.10;;
8100;SDS011;4093;53.470;9.832;2022-12-20T01:56:31;12.80;;;8.57;;
8100;SDS011;4093;53.470;9.832;2022-12-20T01:58:59;13.23;;;9.27;;
8100;SDS011;4093;53.470;9.832;2022-12-20T02:01:28;11.80;;;9.40;;
8100;SDS011;4093;53.470;9.832;2022-12-20T02:03:56;11.40;;;8.43;;
8100;SDS011;4093;53.470;9.832;2022-12-20T02:06:24;12.30;;;9.07;;
8100;SDS011;4093;53.470;9.832;2022-12-20T02:08:53;13.90;;;8.83;;
8100;SDS011;4093;53.470;9.832;2022-12-20T02:11:28;11.10;;;8.53;;
8100;SDS011;4093;53.470;9.832;2022-12-20T02:14:13;13.27;;;8.33;;
8100;SDS011;4093;53.470;9.832;2022-12-20T02:17:00;13.70;;;8.27;;
8100;SDS011;4093;53.470;9.832;2022-12-20T02:19:42;15.10;;;9.25;;
8100;SDS011;4093;53.470;9.832;2022-12-20T02:22:28;13.23;;;9.10;;
8100;SDS011;4093;53.470;9.832;2022-12-20T02:25:20;16.53;;;9.63;;
8100;SDS011;4093;53.470;9.832;2022-12-20T03:00:58;11.55;;;7.68;;
8100;SDS011;4093;53.470;9.832;2022-12-20T03:03:31;13.27;;;8.23;;
8100;SDS011;4093;53.470;9.832;2022-12-20T03:06:01;11.53;;;8.40;;
8100;SDS011;4093;53.470;9.832;2022-12-20T03:08:29;13.10;;;7.87;;
8100;SDS011;4093;53.470;9.832;2022-12-20T03:10:57;11.53;;;8.53;;
8100;SDS011;4093;53.470;9.832;2022-12-20T03:13:24;12.67;;;8.07;;
8100;SDS011;4093;53.470;9.832;2022-12-20T03:15:52;10.83;;;8.33;;
8100;SDS011;4093;53.470;9.832;2022-12-20T03:18:20;13.40;;;8.10;;
8100;SDS011;4093;53.470;9.832;2022-12-20T03:20:49;10.77;;;7.80;;
8100;SDS011;4093;53.470;9.832;2022-12-20T03:23:17;9.43;;;7.73;;
8100;SDS011;4093;53.470;9.832;2022-12-20T03:25:47;11.60;;;8.43;;
8100;SDS011;4093;53.470;9.832;2022-12-20T03:28:15;13.83;;;8.80;;
8100;SDS011;4093;53.470;9.832;2022-12-20T03:30:43;11.17;;;7.73;;
8100;SDS011;4093;53.470;9.832;2022-12-20T03:33:11;11.43;;;8.00;;
8100;SDS011;4093;53.470;9.832;2022-12-20T03:35:39;11.90;;;7.87;;
8100;SDS011;4093;53.470;9.832;2022-12-20T03:38:08;12.27;;;8.60;;
8100;SDS011;4093;53.470;9.832;2022-12-20T03:40:35;11.07;;;7.70;;
8100;SDS011;4093;53.470;9.832;2022-12-20T03:43:03;10.30;;;8.03;;
8100;SDS011;4093;53.470;9.832;2022-12-20T03:45:31;10.03;;;7.87;;
8100;SDS011;4093;53.470;9.832;2022-12-20T03:47:59;11.33;;;7.70;;
8100;SDS011;4093;53.470;9.832;2022-12-20T03:50:26;10.10;;;7.67;;
8100;SDS011;4093;53.470;9.832;2022-12-20T03:52:54;13.63;;;8.10;;
8100;SDS011;4093;53.470;9.832;2022-12-20T03:55:23;11.07;;;8.20;;
8100;SDS011;4093;53.470;9.832;2022-12-20T03:57:51;11.00;;;7.77;;
8100;SDS011;4093;53.470;9.832;2022-12-20T04:00:19;14.53;;;7.23;;
8100;SDS011;4093;53.470;9.832;2022-12-20T04:02:47;11.87;;;7.63;;
8100;SDS011;4093;53.470;9.832;2022-12-20T04:05:15;11.63;;;7.47;;
8100;SDS011;4093;53.470;9.832;2022-12-20T04:07:43;11.73;;;7.73;;
8100;SDS011;4093;53.470;9.832;2022-12-20T04:10:11;9.70;;;8.07;;
8100;SDS011;4093;53.470;9.832;2022-12-20T04:12:40;11.13;;;7.80;;
8100;SDS011;4093;53.470;9.832;2022-12-20T04:15:08;9.50;;;7.13;;
8100;SDS011;4093;53.470;9.832;2022-12-20T04:17:36;11.40;;;7.40;;
8100;SDS011;4093;53.470;9.832;2022-12-20T04:20:05;10.00;;;7.30;;
8100;SDS011;4093;53.470;9.832;2022-12-20T04:22:45;10.13;;;6.80;;
8100;SDS011;4093;53.470;9.832;2022-12-20T04:25:12;11.50;;;8.00;;
8100;SDS011;4093;53.470;9.832;2022-12-20T04:27:42;8.07;;;6.47;;
8100;SDS011;4093;53.470;9.832;2022-12-20T04:30:10;9.87;;;6.93;;
8100;SDS011;4093;53.470;9.832;2022-12-20T04:32:39;12.83;;;7.10;;
8100;SDS011;4093;53.470;9.832;2022-12-20T04:35:07;10.80;;;7.27;;
8100;SDS011;4093;53.470;9.832;2022-12-20T04:37:35;10.30;;;6.83;;
8100;SDS011;4093;53.470;9.832;2022-12-20T04:40:03;11.67;;;7.33;;
8100;SDS011;4093;53.470;9.832;2022-12-20T04:42:32;9.03;;;7.10;;
8100;SDS011;4093;53.470;9.832;2022-12-20T04:45:01;9.93;;;7.13;;
8100;SDS011;4093;53.470;9.832;2022-12-20T04:47:29;9.17;;;6.80;;
8100;SDS011;4093;53.470;9.832;2022-12-20T04:49:57;8.83;;;7.13;;
8100;SDS011;4093;53.470;9.832;2022-12-20T04:52:24;11.77;;;8.20;;
8100;SDS011;4093;53.470;9.832;2022-12-20T04:55:13;15.87;;;8.67;;
8100;SDS011;4093;53.470;9.832;2022-12-20T04:57:41;12.97;;;8.63;;
8100;SDS011;4093;53.470;9.832;2022-12-20T05:00:11;13.90;;;7.93;;
8100;SDS011;4093;53.470;9.832;2022-12-20T05:02:40;10.53;;;7.87;;
8100;SDS011;4093;53.470;9.832;2022-12-20T05:05:08;11.40;;;8.33;;
8100;SDS011;4093;53.470;9.832;2022-12-20T05:07:36;12.73;;;8.27;;
8100;SDS011;4093;53.470;9.832;2022-12-20T05:10:04;13.77;;;8.83;;
8100;SDS011;4093;53.470;9.832;2022-12-20T05:12:33;13.73;;;9.53;;
8100;SDS011;4093;53.470;9.832;2022-12-20T05:15:00;12.33;;;8.80;;
8100;SDS011;4093;53.470;9.832;2022-12-20T05:17:30;11.13;;;9.00;;
8100;SDS011;4093;53.470;9.832;2022-12-20T05:19:58;11.67;;;8.47;;
8100;SDS011;4093;53.470;9.832;2022-12-20T05:22:26;12.57;;;8.37;;
8100;SDS011;4093;53.470;9.832;2022-12-20T05:25:12;12.50;;;8.33;;
8100;SDS011;4093;53.470;9.832;2022-12-20T05:27:57;10.93;;;8.27;;
8100;SDS011;4093;53.470;9.832;2022-12-20T05:30:25;10.77;;;8.10;;
8100;SDS011;4093;53.470;9.832;2022-12-20T05:32:55;11.83;;;8.40;;
8100;SDS011;4093;53.470;9.832;2022-12-20T05:35:22;13.33;;;9.67;;
8100;SDS011;4093;53.470;9.832;2022-12-20T05:37:51;11.03;;;8.70;;
8100;SDS011;4093;53.470;9.832;2022-12-20T05:40:19;11.53;;;8.73;;
8100;SDS011;4093;53.470;9.832;2022-12-20T05:42:47;11.60;;;8.50;;
8100;SDS011;4093;53.470;9.832;2022-12-20T05:45:15;10.37;;;8.07;;
8100;SDS011;4093;53.470;9.832;2022-12-20T05:47:44;10.70;;;7.80;;
8100;SDS011;4093;53.470;9.832;2022-12-20T05:50:13;13.60;;;8.20;;
8100;SDS011;4093;53.470;9.832;2022-12-20T05:52:44;12.60;;;9.43;;
8100;SDS011;4093;53.470;9.832;2022-12-20T05:55:12;14.53;;;9.20;;
8100;SDS011;4093;53.470;9.832;2022-12-20T05:57:40;13.30;;;9.57;;
8100;SDS011;4093;53.470;9.832;2022-12-20T06:00:08;13.23;;;9.10;;
8100;SDS011;4093;53.470;9.832;2022-12-20T06:02:38;11.47;;;8.40;;
8100;SDS011;4093;53.470;9.832;2022-12-20T06:05:06;14.13;;;8.97;;
8100;SDS011;4093;53.470;9.832;2022-12-20T06:07:35;12.70;;;9.63;;
8100;SDS011;4093;53.470;9.832;2022-12-20T06:10:03;12.13;;;8.50;;
8100;SDS011;4093;53.470;9.832;2022-12-20T06:12:32;15.33;;;9.37;;
8100;SDS011;4093;53.470;9.832;2022-12-20T06:15:01;13.30;;;10.10;;
8100;SDS011;4093;53.470;9.832;2022-12-20T06:17:29;14.37;;;9.87;;
8100;SDS011;4093;53.470;9.832;2022-12-20T06:19:57;14.53;;;10.83;;
8100;SDS011;4093;53.470;9.832;2022-12-20T06:22:24;13.67;;;9.53;;
8100;SDS011;4093;53.470;9.832;2022-12-20T06:24:53;15.40;;;10.43;;
8100;SDS011;4093;53.470;9.832;2022-12-20T06:27:21;14.13;;;9.60;;
8100;SDS011;4093;53.470;9.832;2022-12-20T06:29:49;15.30;;;10.77;;
8100;SDS011;4093;53.470;9.832;2022-12-20T06:32:19;14.20;;;10.40;;
8100;SDS011;4093;53.470;9.832;2022-12-20T06:34:47;17.53;;;10.20;;
8100;SDS011;4093;53.470;9.832;2022-12-20T06:37:15;13.97;;;9.40;;
8100;SDS011;4093;53.470;9.832;2022-12-20T06:39:43;13.43;;;8.97;;
8100;SDS011;4093;53.470;9.832;2022-12-20T06:42:12;13.83;;;9.50;;
8100;SDS011;4093;53.470;9.832;2022-12-20T06:44:40;13.97;;;8.97;;
8100;SDS011;4093;53.470;9.832;2022-12-20T06:47:07;12.07;;;9.27;;
8100;SDS011;4093;53.470;9.832;2022-12-20T06:49:35;15.60;;;8.93;;
8100;SDS011;4093;53.470;9.832;2022-12-20T06:52:03;12.37;;;8.50;;
8100;SDS011;4093;53.470;9.832;2022-12-20T06:54:31;11.23;;;9.03;;
8100;SDS011;4093;53.470;9.832;2022-12-20T06:56:58;17.53;;;9.83;;
8100;SDS011;4093;53.470;9.832;2022-12-20T06:59:28;15.10;;;10.00;;
8100;SDS011;4093;53.470;9.832;2022-12-20T07:01:55;13.60;;;9.97;;
8100;SDS011;4093;53.470;9.832;2022-12-20T07:04:24;12.87;;;10.00;;
8100;SDS011;4093;53.470;9.832;2022-12-20T07:06:52;16.97;;;10.67;;
8100;SDS011;4093;53.470;9.832;2022-12-20T07:09:19;16.20;;;11.07;;
8100;SDS011;4093;53.470;9.832;2022-12-20T07:11:47;15.43;;;12.03;;
8100;SDS011;4093;53.470;9.832;2022-12-20T07:14:15;16.03;;;11.73;;
8100;SDS011;4093;53.470;9.832;2022-12-20T07:16:44;17.87;;;11.63;;
8100;SDS011;4093;53.470;9.832;2022-12-20T07:19:13;16.67;;;10.43;;
8100;SDS011;4093;53.470;9.832;2022-12-20T07:21:41;18.87;;;12.27;;
8100;SDS011;4093;53.470;9.832;2022-12-20T07:24:09;17.07;;;11.27;;
8100;SDS011;4093;53.470;9.832;2022-12-20T07:26:37;20.53;;;13.90;;
8100;SDS011;4093;53.470;9.832;2022-12-20T07:29:05;17.63;;;11.43;;
8100;SDS011;4093;53.470;9.832;2022-12-20T07:31:40;18.03;;;14.13;;
8100;SDS011;4093;53.470;9.832;2022-12-20T07:34:10;21.10;;;13.87;;
8100;SDS011;4093;53.470;9.832;2022-12-20T07:36:38;26.80;;;18.70;;
8100;SDS011;4093;53.470;9.832;2022-12-20T07:39:06;27.67;;;18.67;;
8100;SDS011;4093;53.470;9.832;2022-12-20T07:41:34;27.43;;;19.43;;
8100;SDS011;4093;53.470;9.832;2022-12-20T07:44:02;29.70;;;20.33;;
8100;SDS011;4093;53.470;9.832;2022-12-20T07:46:30;24.10;;;14.30;;
8100;SDS011;4093;53.470;9.832;2022-12-20T07:48:58;34.10;;;22.57;;
8100;SDS011;4093;53.470;9.832;2022-12-20T07:51:28;27.03;;;18.37;;
8100;SDS011;4093;53.470;9.832;2022-12-20T07:53:58;36.63;;;23.93;;
8100;SDS011;4093;53.470;9.832;2022-12-20T07:56:29;24.80;;;16.43;;
8100;SDS011;4093;53.470;9.832;2022-12-20T07:59:06;29.20;;;17.83;;
8100;SDS011;4093;53.470;9.832;2022-12-20T08:01:35;29.93;;;18.40;;
8100;SDS011;4093;53.470;9.832;2022-12-20T08:04:04;27.67;;;17.37;;
8100;SDS011;4093;53.470;9.832;2022-12-20T08:06:39;28.67;;;17.03;;
8100;SDS011;4093;53.470;9.832;2022-12-20T08:09:09;24.40;;;15.47;;
8100;SDS011;4093;53.470;9.832;2022-12-20T08:11:39;38.53;;;22.60;;
8100;SDS011;4093;53.470;9.832;2022-12-20T08:14:09;15.77;;;10.80;;
8100;SDS011;4093;53.470;9.832;2022-12-20T08:16:38;16.77;;;10.40;;
8100;SDS011;4093;53.470;9.832;2022-12-20T08:19:07;13.67;;;9.40;;
8100;SDS011;4093;53.470;9.832;2022-12-20T08:21:34;12.83;;;9.70;;
8100;SDS011;4093;53.470;9.832;2022-12-20T08:24:04;15.77;;;10.00;;
8100;SDS011;4093;53.470;9.832;2022-12-20T08:26:35;15.70;;;8.80;;
8100;SDS011;4093;53.470;9.832;2022-12-20T08:29:04;14.33;;;9.07;;
8100;SDS011;4093;53.470;9.832;2022-12-20T08:31:32;13.13;;;9.03;;
8100;SDS011;4093;53.470;9.832;2022-12-20T08:34:03;12.03;;;9.00;;
8100;SDS011;4093;53.470;9.832;2022-12-20T08:36:31;12.63;;;8.73;;
8100;SDS011;4093;53.470;9.832;2022-12-20T08:39:00;11.33;;;9.30;;
8100;SDS011;4093;53.470;9.832;2022-12-20T08:41:30;13.13;;;10.00;;
8100;SDS011;4093;53.470;9.832;2022-12-20T08:43:58;13.07;;;9.30;;
8100;SDS011;4093;53.470;9.832;2022-12-20T08:46:26;13.27;;;10.07;;
8100;SDS011;4093;53.470;9.832;2022-12-20T08:48:54;15.30;;;9.30;;
8100;SDS011;4093;53.470;9.832;2022-12-20T08:51:21;12.30;;;9.13;;
8100;SDS011;4093;53.470;9.832;2022-12-20T08:53:49;11.23;;;8.70;;
8100;SDS011;4093;53.470;9.832;2022-12-20T08:56:18;11.77;;;8.63;;
8100;SDS011;4093;53.470;9.832;2022-12-20T08:58:47;11.20;;;9.07;;
8100;SDS011;4093;53.470;9.832;2022-12-20T09:01:17;11.37;;;8.57;;
8100;SDS011;4093;53.470;9.832;2022-12-20T09:03:46;12.67;;;9.43;;
8100;SDS011;4093;53.470;9.832;2022-12-20T09:06:15;12.43;;;8.77;;
8100;SDS011;4093;53.470;9.832;2022-12-20T09:08:45;11.03;;;9.07;;
8100;SDS011;4093;53.470;9.832;2022-12-20T09:11:14;13.67;;;9.90;;
8100;SDS011;4093;53.470;9.832;2022-12-20T09:13:44;11.10;;;8.23;;
8100;SDS011;4093;53.470;9.832;2022-12-20T09:16:15;13.53;;;10.13;;
8100;SDS011;4093;53.470;9.832;2022-12-20T09:18:47;13.00;;;9.33;;
8100;SDS011;4093;53.470;9.832;2022-12-20T09:21:15;12.20;;;9.47;;
8100;SDS011;4093;53.470;9.832;2022-12-20T09:23:43;12.17;;;8.97;;
8100;SDS011;4093;53.470;9.832;2022-12-20T09:26:12;12.60;;;9.53;;
8100;SDS011;4093;53.470;9.832;2022-12-20T09:28:41;12.63;;;8.77;;
8100;SDS011;4093;53.470;9.832;2022-12-20T09:31:10;12.47;;;8.53;;
8100;SDS011;4093;53.470;9.832;2022-12-20T09:33:41;12.77;;;9.23;;
8100;SDS011;4093;53.470;9.832;2022-12-20T09:36:10;11.93;;;8.87;;
8100;SDS011;4093;53.470;9.832;2022-12-20T09:38:38;13.33;;;9.07;;
8100;SDS011;4093;53.470;9.832;2022-12-20T09:41:07;11.53;;;8.10;;
8100;SDS011;4093;53.470;9.832;2022-12-20T09:43:51;12.37;;;8.10;;
8100;SDS011;4093;53.470;9.832;2022-12-20T09:46:19;12.60;;;9.33;;
8100;SDS011;4093;53.470;9.832;2022-12-20T09:48:51;10.37;;;8.70;;
8100;SDS011;4093;53.470;9.832;2022-12-20T09:51:24;16.47;;;9.70;;
8100;SDS011;4093;53.470;9.832;2022-12-20T09:54:10;15.43;;;10.30;;
8100;SDS011;4093;53.470;9.832;2022-12-20T09:56:50;14.50;;;10.53;;
8100;SDS011;4093;53.470;9.832;2022-12-20T09:59:24;13.07;;;9.97;;
8100;SDS011;4093;53.470;9.832;2022-12-20T10:01:52;15.97;;;10.73;;
8100;SDS011;4093;53.470;9.832;2022-12-20T10:04:22;12.90;;;9.83;;
8100;SDS011;4093;53.470;9.832;2022-12-20T10:06:55;11.10;;;9.27;;
8100;SDS011;4093;53.470;9.832;2022-12-20T10:09:48;14.90;;;9.27;;
8100;SDS011;4093;53.470;9.832;2022-12-20T10:12:31;11.50;;;9.30;;
8100;SDS011;4093;53.470;9.832;2022-12-20T10:15:14;14.43;;;8.83;;
8100;SDS011;4093;53.470;9.832;2022-12-20T10:17:49;10.87;;;8.63;;
8100;SDS011;4093;53.470;9.832;2022-12-20T10:20:29;28.10;;;19.63;;
8100;SDS011;4093;53.470;9.832;2022-12-20T10:23:08;74.97;;;38.10;;
8100;SDS011;4093;53.470;9.832;2022-12-20T10:25:45;41.30;;;24.43;;
8100;SDS011;4093;53.470;9.832;2022-12-20T10:28:14;11.73;;;8.63;;
8100;SDS011;4093;53.470;9.832;2022-12-20T10:30:43;9.83;;;8.63;;
8100;SDS011;4093;53.470;9.832;2022-12-20T10:33:13;10.43;;;8.07;;
8100;SDS011;4093;53.470;9.832;2022-12-20T10:35:47;10.57;;;7.97;;
8100;SDS011;4093;53.470;9.832;2022-12-20T10:38:16;9.73;;;7.83;;
8100;SDS011;4093;53.470;9.832;2022-12-20T10:40:44;10.73;;;7.63;;
8100;SDS011;4093;53.470;9.832;2022-12-20T10:43:36;10.27;;;7.80;;
8100;SDS011;4093;53.470;9.832;2022-12-20T10:46:08;8.07;;;6.67;;
8100;SDS011;4093;53.470;9.832;2022-12-20T10:48:38;10.53;;;6.77;;
8100;SDS011;4093;53.470;9.832;2022-12-20T10:51:13;10.20;;;7.37;;
8100;SDS011;4093;53.470;9.832;2022-12-20T10:53:50;9.77;;;7.27;;
8100;SDS011;4093;53.470;9.832;2022-12-20T10:56:20;9.13;;;6.87;;
8100;SDS011;4093;53.470;9.832;2022-12-20T10:58:54;9.17;;;7.20;;
8100;SDS011;4093;53.470;9.832;2022-12-20T11:01:25;10.30;;;7.33;;
8100;SDS011;4093;53.470;9.832;2022-12-20T11:03:57;8.30;;;6.53;;
8100;SDS011;4093;53.470;9.832;2022-12-20T11:06:38;9.97;;;6.50;;
8100;SDS011;4093;53.470;9.832;2022-12-20T11:09:11;8.90;;;6.37;;
8100;SDS011;4093;53.470;9.832;2022-12-20T11:12:03;9.27;;;6.40;;
8100;SDS011;4093;53.470;9.832;2022-12-20T11:14:34;8.43;;;6.13;;
8100;SDS011;4093;53.470;9.832;2022-12-20T11:17:12;9.90;;;6.40;;
8100;SDS011;4093;53.470;9.832;2022-12-20T11:19:57;7.97;;;6.23;;
8100;SDS011;4093;53.470;9.832;2022-12-20T11:22:42;7.50;;;6.63;;
8100;SDS011;4093;53.470;9.832;2022-12-20T11:25:21;8.97;;;6.17;;
8100;SDS011;4093;53.470;9.832;2022-12-20T11:28:09;10.67;;;6.57;;
8100;SDS011;4093;53.470;9.832;2022-12-20T11:30:59;6.53;;;5.90;;
8100;SDS011;4093;53.470;9.832;2022-12-20T11:33:37;8.40;;;6.00;;
8100;SDS011;4093;53.470;9.832;2022-12-20T11:36:26;8.27;;;5.93;;
8100;SDS011;4093;53.470;9.832;2022-12-20T11:39:10;8.13;;;6.33;;
8100;SDS011;4093;53.470;9.832;2022-12-20T11:41:49;7.37;;;5.90;;
8100;SDS011;4093;53.470;9.832;2022-12-20T11:44:28;8.90;;;6.00;;
8100;SDS011;4093;53.470;9.832;2022-12-20T11:47:35;7.53;;;6.20;;
8100;SDS011;4093;53.470;9.832;2022-12-20T11:50:19;6.97;;;5.63;;
8100;SDS011;4093;53.470;9.832;2022-12-20T11:53:04;11.40;;;7.07;;
8100;SDS011;4093;53.470;9.832;2022-12-20T11:55:38;8.23;;;5.50;;
8100;SDS011;4093;53.470;9.832;2022-12-20T11:58:11;7.10;;;6.30;;
8100;SDS011;4093;53.470;9.832;2022-12-20T12:00:46;8.80;;;6.47;;
8100;SDS011;4093;53.470;9.832;2022-12-20T12:03:22;6.50;;;5.83;;
8100;SDS011;4093;53.470;9.832;2022-12-20T12:05:55;7.60;;;5.70;;
8100;SDS011;4093;53.470;9.832;2022-12-20T12:08:29;8.43;;;6.00;;
8100;SDS011;4093;53.470;9.832;2022-12-20T12:11:05;6.77;;;5.90;;
8100;SDS011;4093;53.470;9.832;2022-12-20T12:13:59;8.07;;;5.87;;
8100;SDS011;4093;53.470;9.832;2022-12-20T12:16:31;8.20;;;6.30;;
8100;SDS011;4093;53.470;9.832;2022-12-20T12:19:02;7.30;;;6.00;;
8100;SDS011;4093;53.470;9.832;2022-12-20T12:21:30;7.63;;;6.20;;
8100;SDS011;4093;53.470;9.832;2022-12-20T12:24:04;8.30;;;5.70;;
8100;SDS011;4093;53.470;9.832;2022-12-20T12:26:39;10.73;;;7.37;;
8100;SDS011;4093;53.470;9.832;2022-12-20T12:29:09;22.37;;;15.63;;
8100;SDS011;4093;53.470;9.832;2022-12-20T12:31:40;12.43;;;9.43;;
8100;SDS011;4093;53.470;9.832;2022-12-20T12:34:13;9.03;;;6.77;;
8100;SDS011;4093;53.470;9.832;2022-12-20T12:37:03;10.87;;;6.70;;
8100;SDS011;4093;53.470;9.832;2022-12-20T12:39:50;14.23;;;6.90;;
8100;SDS011;4093;53.470;9.832;2022-12-20T12:42:47;11.07;;;7.70;;
8100;SDS011;4093;53.470;9.832;2022-12-20T12:45:36;11.33;;;7.03;;
8100;SDS011;4093;53.470;9.832;2022-12-20T12:48:11;8.63;;;7.37;;
8100;SDS011;4093;53.470;9.832;2022-12-20T12:50:43;10.80;;;8.10;;
8100;SDS011;4093;53.470;9.832;2022-12-20T12:53:14;10.87;;;8.90;;
8100;SDS011;4093;53.470;9.832;2022-12-20T12:55:44;12.40;;;8.27;;
8100;SDS011;4093;53.470;9.832;2022-12-20T12:58:27;11.83;;;8.67;;
8100;SDS011;4093;53.470;9.832;2022-12-20T13:01:01;9.57;;;7.93;;
8100;SDS011;4093;53.470;9.832;2022-12-20T13:03:40;10.37;;;8.13;;
8100;SDS011;4093;53.470;9.832;2022-12-20T13:09:21;9.80;;;8.17;;
8100;SDS011;4093;53.470;9.832;2022-12-20T13:18:21;10.67;;;7.77;;
8100;SDS011;4093;53.470;9.832;2022-12-20T13:27:14;9.87;;;8.87;;
8100;SDS011;4093;53.470;9.832;2022-12-20T13:33:19;12.17;;;8.33;;
8100;SDS011;4093;53.470;9.832;2022-12-20T13:35:54;10.20;;;8.43;;
8100;SDS011;4093;53.470;9.832;2022-12-20T13:38:50;13.30;;;9.40;;
8100;SDS011;4093;53.470;9.832;2022-12-20T13:41:24;11.33;;;8.40;;
8100;SDS011;4093;53.470;9.832;2022-12-20T13:44:14;13.10;;;9.80;;
8100;SDS011;4093;53.470;9.832;2022-12-20T13:47:01;9.90;;;8.43;;
8100;SDS011;4093;53.470;9.832;2022-12-20T13:49:35;13.83;;;8.90;;
8100;SDS011;4093;53.470;9.832;2022-12-20T13:52:05;15.97;;;9.27;;
8100;SDS011;4093;53.470;9.832;2022-12-20T13:54:40;10.37;;;8.70;;
8100;SDS011;4093;53.470;9.832;2022-12-20T13:57:13;12.70;;;9.20;;
8100;SDS011;4093;53.470;9.832;2022-12-20T13:59:44;17.30;;;10.43;;
8100;SDS011;4093;53.470;9.832;2022-12-20T14:02:17;13.90;;;10.03;;
8100;SDS011;4093;53.470;9.832;2022-12-20T14:04:50;14.43;;;9.83;;
8100;SDS011;4093;53.470;9.832;2022-12-20T14:07:24;12.60;;;9.30;;
8100;SDS011;4093;53.470;9.832;2022-12-20T14:09:55;13.83;;;10.63;;
8100;SDS011;4093;53.470;9.832;2022-12-20T14:12:24;13.63;;;9.60;;
8100;SDS011;4093;53.470;9.832;2022-12-20T14:15:02;11.17;;;9.47;;
8100;SDS011;4093;53.470;9.832;2022-12-20T14:17:46;13.63;;;10.13;;
8100;SDS011;4093;53.470;9.832;2022-12-20T14:20:16;11.63;;;8.83;;
8100;SDS011;4093;53.470;9.832;2022-12-20T14:22:50;11.87;;;8.90;;
8100;SDS011;4093;53.470;9.832;2022-12-20T14:25:34;12.90;;;8.57;;
8100;SDS011;4093;53.470;9.832;2022-12-20T14:28:12;13.43;;;9.03;;
8100;SDS011;4093;53.470;9.832;2022-12-20T14:30:52;11.57;;;9.53;;
8100;SDS011;4093;53.470;9.832;2022-12-20T14:33:24;11.83;;;9.13;;
8100;SDS011;4093;53.470;9.832;2022-12-20T14:36:01;14.50;;;9.73;;
8100;SDS011;4093;53.470;9.832;2022-12-20T14:38:34;14.07;;;9.47;;
8100;SDS011;4093;53.470;9.832;2022-12-20T14:41:02;11.33;;;8.77;;
8100;SDS011;4093;53.470;9.832;2022-12-20T14:43:32;15.33;;;10.53;;
8100;SDS011;4093;53.470;9.832;2022-12-20T14:46:11;12.30;;;9.90;;
8100;SDS011;4093;53.470;9.832;2022-12-20T14:48:44;10.27;;;9.07;;
8100;SDS011;4093;53.470;9.832;2022-12-20T14:51:13;14.90;;;10.80;;
8100;SDS011;4093;53.470;9.832;2022-12-20T14:53:47;12.83;;;10.77;;
8100;SDS011;4093;53.470;9.832;2022-12-20T14:56:17;13.50;;;9.50;;
8100;SDS011;4093;53.470;9.832;2022-12-20T14:59:00;14.60;;;11.37;;
8100;SDS011;4093;53.470;9.832;2022-12-20T15:01:31;24.83;;;17.07;;
8100;SDS011;4093;53.470;9.832;2022-12-20T15:04:18;18.50;;;12.53;;
8100;SDS011;4093;53.470;9.832;2022-12-20T15:06:50;46.43;;;21.33;;
8100;SDS011;4093;53.470;9.832;2022-12-20T15:09:19;41.07;;;25.73;;
8100;SDS011;4093;53.470;9.832;2022-12-20T15:11:47;16.37;;;12.60;;
8100;SDS011;4093;53.470;9.832;2022-12-20T15:14:30;13.60;;;12.00;;
8100;SDS011;4093;53.470;9.832;2022-12-20T15:17:01;14.00;;;10.17;;
8100;SDS011;4093;53.470;9.832;2022-12-20T15:19:30;12.13;;;10.13;;
8100;SDS011;4093;53.470;9.832;2022-12-20T15:22:05;12.87;;;10.53;;
8100;SDS011;4093;53.470;9.832;2022-12-20T15:24:39;13.87;;;10.60;;
8100;SDS011;4093;53.470;9.832;2022-12-20T15:27:10;12.93;;;10.20;;
8100;SDS011;4093;53.470;9.832;2022-12-20T15:29:39;12.07;;;9.93;;
8100;SDS011;4093;53.470;9.832;2022-12-20T15:32:12;12.80;;;10.13;;
8100;SDS011;4093;53.470;9.832;2022-12-20T15:34:43;12.77;;;10.57;;
8100;SDS011;4093;53.470;9.832;2022-12-20T15:37:13;12.37;;;10.60;;
8100;SDS011;4093;53.470;9.832;2022-12-20T15:39:44;13.67;;;9.47;;
8100;SDS011;4093;53.470;9.832;2022-12-20T15:42:12;11.50;;;9.50;;
8100;SDS011;4093;53.470;9.832;2022-12-20T15:44:43;12.70;;;9.97;;
8100;SDS011;4093;53.470;9.832;2022-12-20T15:47:12;13.33;;;10.37;;
8100;SDS011;4093;53.470;9.832;2022-12-20T15:49:40;13.17;;;9.20;;
8100;SDS011;4093;53.470;9.832;2022-12-20T15:52:17;11.40;;;8.77;;
8100;SDS011;4093;53.470;9.832;2022-12-20T15:54:47;14.07;;;9.20;;
8100;SDS011;4093;53.470;9.832;2022-12-20T15:57:15;12.67;;;9.90;;
8100;SDS011;4093;53.470;9.832;2022-12-20T15:59:43;11.53;;;9.17;;
8100;SDS011;4093;53.470;9.832;2022-12-20T16:02:27;12.60;;;9.03;;
8100;SDS011;4093;53.470;9.832;2022-12-20T16:04:56;11.10;;;8.63;;
8100;SDS011;4093;53.470;9.832;2022-12-20T16:07:26;12.30;;;8.90;;
8100;SDS011;4093;53.470;9.832;2022-12-20T16:09:53;10.47;;;8.90;;
8100;SDS011;4093;53.470;9.832;2022-12-20T16:12:22;14.87;;;8.30;;
8100;SDS011;4093;53.470;9.832;2022-12-20T16:14:51;12.07;;;9.07;;
8100;SDS011;4093;53.470;9.832;2022-12-20T16:17:20;12.17;;;8.63;;
8100;SDS011;4093;53.470;9.832;2022-12-20T16:19:48;14.00;;;10.07;;
8100;SDS011;4093;53.470;9.832;2022-12-20T16:22:17;12.60;;;8.70;;